sensor_id;sensor_type;location;lat;lon;timestamp;P1;durP1;ratioP1;P2;durP2;ratioP2
17251;SDS011;8742;51.716;8.790;2023-08-20T00:00:56;33.17;;;22.80;;
17251;SDS011;8742;51.716;8.790;2023-08-20T00:03:23;36.67;;;24.57;;
17251;SDS011;8742;51.716;8.790;2023-08-20T00:05:50;31.27;;;23.33;;
17251;SDS011;8742;51.716;8.790;2023-08-20T00:08:18;33.20;;;23.40;;
17251;SDS011;8742;51.716;8.790;2023-08-20T00:10:46;32.50;;;23.50;;
17251;SDS011;8742;51.716;8.790;2023-08-20T00:13:13;33.67;;;24.27;;
17251;SDS011;8742;51.716;8.790;2023-08-20T00:15:40;26.20;;;21.90;;
17251;SDS011;8742;51.716;8.790;2023-08-20T00:18:07;30.47;;;22.33;;
17251;SDS011;8742;51.716;8.790;2023-08-20T00:20:35;33.67;;;21.67;;
17251;SDS011;8742;51.716;8.790;2023-08-20T00:23:02;30.57;;;21.57;;
17251;SDS011;8742;51.716;8.790;2023-08-20T00:25:30;29.87;;;22.17;;
17251;SDS011;8742;51.716;8.790;2023-08-20T00:27:59;33.33;;;23.13;;
17251;SDS011;8742;51.716;8.790;2023-08-20T00:30:25;32.83;;;22.50;;
17251;SDS011;8742;51.716;8.790;2023-08-20T00:32:52;32.30;;;21.27;;
17251;SDS011;8742;51.716;8.790;2023-08-20T00:35:19;33.53;;;22.27;;
17251;SDS011;8742;51.716;8.790;2023-08-20T00:37:46;31.70;;;22.50;;
17251;SDS011;8742;51.716;8.790;2023-08-20T00:40:13;34.60;;;22.73;;
17251;SDS011;8742;51.716;8.790;2023-08-20T00:42:40;33.63;;;22.63;;
17251;SDS011;8742;51.716;8.790;2023-08-20T00:45:09;31.70;;;22.33;;
17251;SDS011;8742;51.716;8.790;2023-08-20T00:47:36;30.20;;;21.67;;
17251;SDS011;8742;51.716;8.790;2023-08-20T00:50:04;28.00;;;21.17;;
17251;SDS011;8742;51.716;8.790;2023-08-20T00:52:33;32.13;;;21.50;;
17251;SDS011;8742;51.716;8.790;2023-08-20T00:55:00;29.80;;;21.20;;
17251;SDS011;8742;51.716;8.790;2023-08-20T00:57:34;29.67;;;20.57;;
17251;SDS011;8742;51.716;8.790;2023-08-20T01:00:01;28.13;;;21.57;;
17251;SDS011;8742;51.716;8.790;2023-08-20T01:02:33;34.27;;;23.60;;
17251;SDS011;8742;51.716;8.790;2023-08-20T01:05:00;31.90;;;20.73;;
17251;SDS011;8742;51.716;8.790;2023-08-20T01:07:29;35.93;;;19.77;;
17251;SDS011;8742;51.716;8.790;2023-08-20T01:10:04;23.80;;;18.03;;
17251;SDS011;8742;51.716;8.790;2023-08-20T01:12:39;33.00;;;22.90;;
17251;SDS011;8742;51.716;8.790;2023-08-20T01:15:07;29.27;;;20.87;;
17251;SDS011;8742;51.716;8.790;2023-08-20T01:17:40;31.13;;;20.00;;
17251;SDS011;8742;51.716;8.790;2023-08-20T01:20:07;28.93;;;20.13;;
17251;SDS011;8742;51.716;8.790;2023-08-20T01:22:41;28.97;;;19.57;;
17251;SDS011;8742;51.716;8.790;2023-08-20T01:25:30;30.77;;;19.47;;
17251;SDS011;8742;51.716;8.790;2023-08-20T01:28:19;30.33;;;19.47;;
17251;SDS011;8742;51.716;8.790;2023-08-20T01:30:48;28.80;;;19.00;;
17251;SDS011;8742;51.716;8.790;2023-08-20T01:33:15;34.27;;;20.00;;
17251;SDS011;8742;51.716;8.790;2023-08-20T01:35:43;26.63;;;19.37;;
17251;SDS011;8742;51.716;8.790;2023-08-20T01:38:10;27.90;;;20.40;;
17251;SDS011;8742;51.716;8.790;2023-08-20T01:40:37;28.87;;;21.27;;
17251;SDS011;8742;51.716;8.790;2023-08-20T01:43:04;30.87;;;21.03;;
17251;SDS011;8742;51.716;8.790;2023-08-20T01:45:32;32.37;;;22.23;;
17251;SDS011;8742;51.716;8.790;2023-08-20T01:47:58;34.47;;;22.47;;
17251;SDS011;8742;51.716;8.790;2023-08-20T01:50:25;31.97;;;22.53;;
17251;SDS011;8742;51.716;8.790;2023-08-20T01:52:52;29.33;;;22.27;;
17251;SDS011;8742;51.716;8.790;2023-08-20T01:55:19;28.60;;;21.17;;
17251;SDS011;8742;51.716;8.790;2023-08-20T01:57:46;29.90;;;22.53;;
17251;SDS011;8742;51.716;8.790;2023-08-20T02:00:14;29.33;;;21.40;;
17251;SDS011;8742;51.716;8.790;2023-08-20T02:02:42;38.90;;;23.80;;
17251;SDS011;8742;51.716;8.790;2023-08-20T02:05:09;31.67;;;24.20;;
17251;SDS011;8742;51.716;8.790;2023-08-20T02:07:36;36.67;;;25.10;;
17251;SDS011;8742;51.716;8.790;2023-08-20T02:10:03;36.37;;;26.80;;
17251;SDS011;8742;51.716;8.790;2023-08-20T02:12:31;43.63;;;29.20;;
17251;SDS011;8742;51.716;8.790;2023-08-20T02:14:58;37.37;;;27.03;;
17251;SDS011;8742;51.716;8.790;2023-08-20T02:17:25;46.17;;;28.00;;
17251;SDS011;8742;51.716;8.790;2023-08-20T02:19:53;39.60;;;27.57;;
17251;SDS011;8742;51.716;8.790;2023-08-20T02:22:20;40.93;;;27.93;;
17251;SDS011;8742;51.716;8.790;2023-08-20T02:24:47;42.50;;;25.73;;
17251;SDS011;8742;51.716;8.790;2023-08-20T02:27:14;42.03;;;25.00;;
17251;SDS011;8742;51.716;8.790;2023-08-20T02:29:40;37.57;;;26.33;;
17251;SDS011;8742;51.716;8.790;2023-08-20T02:32:07;38.47;;;26.43;;
17251;SDS011;8742;51.716;8.790;2023-08-20T02:34:34;39.37;;;27.83;;
17251;SDS011;8742;51.716;8.790;2023-08-20T02:37:02;43.00;;;28.70;;
17251;SDS011;8742;51.716;8.790;2023-08-20T02:39:29;41.20;;;28.73;;
17251;SDS011;8742;51.716;8.790;2023-08-20T02:41:56;41.23;;;29.77;;
17251;SDS011;8742;51.716;8.790;2023-08-20T02:44:23;41.97;;;29.97;;
17251;SDS011;8742;51.716;8.790;2023-08-20T02:46:50;44.83;;;31.77;;
17251;SDS011;8742;51.716;8.790;2023-08-20T02:49:17;49.30;;;35.30;;
17251;SDS011;8742;51.716;8.790;2023-08-20T02:51:43;51.20;;;34.20;;
17251;SDS011;8742;51.716;8.790;2023-08-20T02:54:12;50.80;;;33.87;;
17251;SDS011;8742;51.716;8.790;2023-08-20T02:56:38;52.13;;;32.47;;
17251;SDS011;8742;51.716;8.790;2023-08-20T02:59:05;48.23;;;33.83;;
17251;SDS011;8742;51.716;8.790;2023-08-20T03:01:32;50.90;;;33.83;;
17251;SDS011;8742;51.716;8.790;2023-08-20T03:03:59;46.37;;;32.60;;
17251;SDS011;8742;51.716;8.790;2023-08-20T03:06:25;46.00;;;31.17;;
17251;SDS011;8742;51.716;8.790;2023-08-20T03:08:52;47.80;;;32.23;;
17251;SDS011;8742;51.716;8.790;2023-08-20T03:11:20;42.87;;;30.57;;
17251;SDS011;8742;51.716;8.790;2023-08-20T03:13:47;43.10;;;28.67;;
17251;SDS011;8742;51.716;8.790;2023-08-20T03:16:14;46.33;;;30.00;;
17251;SDS011;8742;51.716;8.790;2023-08-20T03:18:41;44.40;;;29.73;;
17251;SDS011;8742;51.716;8.790;2023-08-20T03:21:08;46.03;;;32.03;;
17251;SDS011;8742;51.716;8.790;2023-08-20T03:23:34;49.07;;;30.97;;
17251;SDS011;8742;51.716;8.790;2023-08-20T03:26:02;47.83;;;33.07;;
17251;SDS011;8742;51.716;8.790;2023-08-20T03:28:30;52.20;;;32.30;;
17251;SDS011;8742;51.716;8.790;2023-08-20T03:30:59;41.53;;;30.17;;
17251;SDS011;8742;51.716;8.790;2023-08-20T03:33:27;50.63;;;32.40;;
17251;SDS011;8742;51.716;8.790;2023-08-20T03:35:53;47.03;;;31.37;;
17251;SDS011;8742;51.716;8.790;2023-08-20T03:38:20;46.23;;;32.27;;
17251;SDS011;8742;51.716;8.790;2023-08-20T03:40:49;49.90;;;33.47;;
17251;SDS011;8742;51.716;8.790;2023-08-20T03:43:16;45.60;;;33.43;;
17251;SDS011;8742;51.716;8.790;2023-08-20T03:45:45;49.70;;;32.57;;
17251;SDS011;8742;51.716;8.790;2023-08-20T03:48:16;48.77;;;33.83;;
17251;SDS011;8742;51.716;8.790;2023-08-20T03:50:43;48.77;;;32.57;;
17251;SDS011;8742;51.716;8.790;2023-08-20T03:53:13;46.97;;;29.80;;
17251;SDS011;8742;51.716;8.790;2023-08-20T03:55:40;47.37;;;30.37;;
17251;SDS011;8742;51.716;8.790;2023-08-20T03:58:27;45.03;;;30.53;;
17251;SDS011;8742;51.716;8.790;2023-08-20T04:00:56;61.57;;;36.67;;
17251;SDS011;8742;51.716;8.790;2023-08-20T04:03:23;54.17;;;35.23;;
17251;SDS011;8742;51.716;8.790;2023-08-20T04:05:54;52.93;;;37.57;;
17251;SDS011;8742;51.716;8.790;2023-08-20T04:08:21;62.30;;;39.30;;
17251;SDS011;8742;51.716;8.790;2023-08-20T04:10:49;57.83;;;38.10;;
17251;SDS011;8742;51.716;8.790;2023-08-20T04:13:16;65.33;;;40.70;;
17251;SDS011;8742;51.716;8.790;2023-08-20T04:15:43;71.87;;;41.50;;
17251;SDS011;8742;51.716;8.790;2023-08-20T04:18:12;62.30;;;40.63;;
17251;SDS011;8742;51.716;8.790;2023-08-20T04:20:39;58.87;;;37.50;;
17251;SDS011;8742;51.716;8.790;2023-08-20T04:23:08;64.77;;;37.53;;
17251;SDS011;8742;51.716;8.790;2023-08-20T04:25:35;65.03;;;41.37;;
17251;SDS011;8742;51.716;8.790;2023-08-20T04:28:02;60.40;;;38.37;;
17251;SDS011;8742;51.716;8.790;2023-08-20T04:30:38;69.30;;;42.03;;
17251;SDS011;8742;51.716;8.790;2023-08-20T04:33:05;68.63;;;42.30;;
17251;SDS011;8742;51.716;8.790;2023-08-20T04:35:34;67.57;;;41.33;;
17251;SDS011;8742;51.716;8.790;2023-08-20T04:38:01;73.33;;;40.87;;
17251;SDS011;8742;51.716;8.790;2023-08-20T04:40:28;66.00;;;41.80;;
17251;SDS011;8742;51.716;8.790;2023-08-20T04:42:56;67.53;;;39.00;;
17251;SDS011;8742;51.716;8.790;2023-08-20T04:45:23;67.47;;;40.20;;
17251;SDS011;8742;51.716;8.790;2023-08-20T04:47:50;76.13;;;41.47;;
17251;SDS011;8742;51.716;8.790;2023-08-20T04:50:17;58.23;;;36.80;;
17251;SDS011;8742;51.716;8.790;2023-08-20T04:52:46;51.43;;;35.40;;
17251;SDS011;8742;51.716;8.790;2023-08-20T04:55:13;66.10;;;38.60;;
17251;SDS011;8742;51.716;8.790;2023-08-20T04:57:40;61.43;;;37.07;;
17251;SDS011;8742;51.716;8.790;2023-08-20T05:00:08;60.97;;;36.70;;
17251;SDS011;8742;51.716;8.790;2023-08-20T05:02:35;55.47;;;34.53;;
17251;SDS011;8742;51.716;8.790;2023-08-20T05:05:04;50.70;;;33.97;;
17251;SDS011;8742;51.716;8.790;2023-08-20T05:07:46;50.67;;;33.23;;
17251;SDS011;8742;51.716;8.790;2023-08-20T05:10:17;54.50;;;32.67;;
17251;SDS011;8742;51.716;8.790;2023-08-20T05:12:45;47.37;;;31.63;;
17251;SDS011;8742;51.716;8.790;2023-08-20T05:15:12;46.27;;;30.30;;
17251;SDS011;8742;51.716;8.790;2023-08-20T05:17:39;49.63;;;33.37;;
17251;SDS011;8742;51.716;8.790;2023-08-20T05:20:06;49.60;;;32.13;;
17251;SDS011;8742;51.716;8.790;2023-08-20T05:22:35;58.87;;;37.17;;
17251;SDS011;8742;51.716;8.790;2023-08-20T05:25:04;55.67;;;36.67;;
17251;SDS011;8742;51.716;8.790;2023-08-20T05:27:31;58.17;;;36.80;;
17251;SDS011;8742;51.716;8.790;2023-08-20T05:29:58;50.70;;;35.60;;
17251;SDS011;8742;51.716;8.790;2023-08-20T05:32:25;51.97;;;34.07;;
17251;SDS011;8742;51.716;8.790;2023-08-20T05:34:52;52.33;;;33.83;;
17251;SDS011;8742;51.716;8.790;2023-08-20T05:37:19;58.17;;;36.43;;
17251;SDS011;8742;51.716;8.790;2023-08-20T05:39:46;56.20;;;35.43;;
17251;SDS011;8742;51.716;8.790;2023-08-20T05:42:26;52.17;;;35.10;;
17251;SDS011;8742;51.716;8.790;2023-08-20T05:44:55;57.20;;;37.30;;
17251;SDS011;8742;51.716;8.790;2023-08-20T05:47:22;55.40;;;37.10;;
17251;SDS011;8742;51.716;8.790;2023-08-20T05:49:49;61.10;;;37.53;;
17251;SDS011;8742;51.716;8.790;2023-08-20T05:52:16;63.90;;;37.67;;
17251;SDS011;8742;51.716;8.790;2023-08-20T05:54:43;62.70;;;36.37;;
17251;SDS011;8742;51.716;8.790;2023-08-20T05:57:10;57.30;;;34.17;;
17251;SDS011;8742;51.716;8.790;2023-08-20T05:59:39;54.10;;;34.10;;
17251;SDS011;8742;51.716;8.790;2023-08-20T06:02:06;50.23;;;30.57;;
17251;SDS011;8742;51.716;8.790;2023-08-20T06:04:33;47.07;;;31.93;;
17251;SDS011;8742;51.716;8.790;2023-08-20T06:07:00;44.33;;;31.13;;
17251;SDS011;8742;51.716;8.790;2023-08-20T06:09:27;44.37;;;28.57;;
17251;SDS011;8742;51.716;8.790;2023-08-20T06:11:54;41.70;;;28.73;;
17251;SDS011;8742;51.716;8.790;2023-08-20T06:14:21;40.83;;;27.00;;
17251;SDS011;8742;51.716;8.790;2023-08-20T06:16:51;41.13;;;28.60;;
17251;SDS011;8742;51.716;8.790;2023-08-20T06:19:18;43.97;;;26.97;;
17251;SDS011;8742;51.716;8.790;2023-08-20T06:21:46;51.33;;;26.80;;
17251;SDS011;8742;51.716;8.790;2023-08-20T06:24:12;39.73;;;26.93;;
17251;SDS011;8742;51.716;8.790;2023-08-20T06:26:39;40.20;;;24.63;;
17251;SDS011;8742;51.716;8.790;2023-08-20T06:29:08;38.73;;;24.43;;
17251;SDS011;8742;51.716;8.790;2023-08-20T06:31:35;42.70;;;24.67;;
17251;SDS011;8742;51.716;8.790;2023-08-20T06:34:04;40.43;;;24.83;;
17251;SDS011;8742;51.716;8.790;2023-08-20T06:36:31;40.63;;;26.77;;
17251;SDS011;8742;51.716;8.790;2023-08-20T06:38:58;36.30;;;26.00;;
17251;SDS011;8742;51.716;8.790;2023-08-20T06:41:25;36.17;;;26.03;;
17251;SDS011;8742;51.716;8.790;2023-08-20T06:43:51;40.47;;;25.77;;
17251;SDS011;8742;51.716;8.790;2023-08-20T06:46:18;43.27;;;26.63;;
17251;SDS011;8742;51.716;8.790;2023-08-20T06:48:45;38.53;;;25.70;;
17251;SDS011;8742;51.716;8.790;2023-08-20T06:51:14;35.97;;;24.57;;
17251;SDS011;8742;51.716;8.790;2023-08-20T06:53:41;38.23;;;24.60;;
17251;SDS011;8742;51.716;8.790;2023-08-20T06:56:08;37.20;;;24.77;;
17251;SDS011;8742;51.716;8.790;2023-08-20T06:58:36;34.33;;;24.45;;
17251;SDS011;8742;51.716;8.790;2023-08-20T07:01:05;37.03;;;24.15;;
17251;SDS011;8742;51.716;8.790;2023-08-20T07:03:37;32.80;;;23.55;;
17251;SDS011;8742;51.716;8.790;2023-08-20T07:06:05;37.67;;;24.90;;
17251;SDS011;8742;51.716;8.790;2023-08-20T07:08:35;32.95;;;22.67;;
17251;SDS011;8742;51.716;8.790;2023-08-20T07:11:04;34.92;;;23.50;;
17251;SDS011;8742;51.716;8.790;2023-08-20T07:13:31;32.92;;;23.83;;
17251;SDS011;8742;51.716;8.790;2023-08-20T07:15:58;38.35;;;23.63;;
17251;SDS011;8742;51.716;8.790;2023-08-20T07:18:25;33.97;;;24.13;;
17251;SDS011;8742;51.716;8.790;2023-08-20T07:20:52;33.15;;;22.92;;
17251;SDS011;8742;51.716;8.790;2023-08-20T07:23:19;28.67;;;21.33;;
17251;SDS011;8742;51.716;8.790;2023-08-20T07:25:47;31.80;;;21.50;;
17251;SDS011;8742;51.716;8.790;2023-08-20T07:28:17;30.75;;;21.80;;
17251;SDS011;8742;51.716;8.790;2023-08-20T07:31:04;35.08;;;22.90;;
17251;SDS011;8742;51.716;8.790;2023-08-20T07:33:32;32.75;;;21.80;;
17251;SDS011;8742;51.716;8.790;2023-08-20T07:35:58;31.70;;;20.92;;
17251;SDS011;8742;51.716;8.790;2023-08-20T07:38:27;30.13;;;21.35;;
17251;SDS011;8742;51.716;8.790;2023-08-20T07:40:55;29.98;;;20.45;;
17251;SDS011;8742;51.716;8.790;2023-08-20T07:43:22;25.67;;;18.55;;
17251;SDS011;8742;51.716;8.790;2023-08-20T07:45:50;26.95;;;18.35;;
17251;SDS011;8742;51.716;8.790;2023-08-20T07:48:17;26.80;;;17.88;;
17251;SDS011;8742;51.716;8.790;2023-08-20T07:50:44;28.65;;;17.65;;
17251;SDS011;8742;51.716;8.790;2023-08-20T07:53:11;28.75;;;17.48;;
17251;SDS011;8742;51.716;8.790;2023-08-20T07:55:37;30.17;;;18.58;;
17251;SDS011;8742;51.716;8.790;2023-08-20T07:58:06;24.58;;;16.60;;
17251;SDS011;8742;51.716;8.790;2023-08-20T08:00:32;20.23;;;14.07;;
17251;SDS011;8742;51.716;8.790;2023-08-20T08:03:00;19.73;;;14.35;;
17251;SDS011;8742;51.716;8.790;2023-08-20T08:05:27;23.90;;;14.73;;
17251;SDS011;8742;51.716;8.790;2023-08-20T08:07:54;24.73;;;16.10;;
17251;SDS011;8742;51.716;8.790;2023-08-20T08:10:21;24.10;;;16.10;;
17251;SDS011;8742;51.716;8.790;2023-08-20T08:12:48;17.88;;;13.10;;
17251;SDS011;8742;51.716;8.790;2023-08-20T08:15:16;22.60;;;14.20;;
17251;SDS011;8742;51.716;8.790;2023-08-20T08:17:44;22.88;;;13.82;;
17251;SDS011;8742;51.716;8.790;2023-08-20T08:20:11;17.90;;;12.35;;
17251;SDS011;8742;51.716;8.790;2023-08-20T08:22:38;16.98;;;12.68;;
17251;SDS011;8742;51.716;8.790;2023-08-20T08:25:05;16.33;;;12.85;;
17251;SDS011;8742;51.716;8.790;2023-08-20T08:27:32;18.05;;;12.60;;
17251;SDS011;8742;51.716;8.790;2023-08-20T08:29:59;23.48;;;13.07;;
17251;SDS011;8742;51.716;8.790;2023-08-20T08:32:28;18.23;;;11.80;;
17251;SDS011;8742;51.716;8.790;2023-08-20T08:34:55;18.15;;;13.57;;
17251;SDS011;8742;51.716;8.790;2023-08-20T08:37:21;15.70;;;12.68;;
17251;SDS011;8742;51.716;8.790;2023-08-20T08:39:48;19.35;;;12.75;;
17251;SDS011;8742;51.716;8.790;2023-08-20T08:42:15;16.67;;;11.55;;
17251;SDS011;8742;51.716;8.790;2023-08-20T08:44:46;20.00;;;13.80;;
17251;SDS011;8742;51.716;8.790;2023-08-20T08:47:13;18.38;;;13.75;;
17251;SDS011;8742;51.716;8.790;2023-08-20T08:49:41;15.77;;;12.55;;
17251;SDS011;8742;51.716;8.790;2023-08-20T08:52:10;16.83;;;13.02;;
17251;SDS011;8742;51.716;8.790;2023-08-20T08:54:38;18.20;;;12.43;;
17251;SDS011;8742;51.716;8.790;2023-08-20T08:57:05;20.92;;;11.82;;
17251;SDS011;8742;51.716;8.790;2023-08-20T08:59:32;16.23;;;12.88;;
17251;SDS011;8742;51.716;8.790;2023-08-20T09:01:59;18.67;;;13.40;;
17251;SDS011;8742;51.716;8.790;2023-08-20T09:04:26;19.27;;;12.82;;
17251;SDS011;8742;51.716;8.790;2023-08-20T09:06:55;18.20;;;13.57;;
17251;SDS011;8742;51.716;8.790;2023-08-20T09:09:22;14.60;;;11.20;;
17251;SDS011;8742;51.716;8.790;2023-08-20T09:11:49;13.35;;;10.77;;
17251;SDS011;8742;51.716;8.790;2023-08-20T09:14:23;13.05;;;10.65;;
17251;SDS011;8742;51.716;8.790;2023-08-20T09:16:54;14.18;;;10.30;;
17251;SDS011;8742;51.716;8.790;2023-08-20T09:19:22;15.02;;;10.65;;
17251;SDS011;8742;51.716;8.790;2023-08-20T09:22:28;13.32;;;11.07;;
17251;SDS011;8742;51.716;8.790;2023-08-20T09:25:01;13.07;;;10.40;;
17251;SDS011;8742;51.716;8.790;2023-08-20T09:27:38;14.10;;;9.05;;
17251;SDS011;8742;51.716;8.790;2023-08-20T09:30:07;12.85;;;10.23;;
17251;SDS011;8742;51.716;8.790;2023-08-20T09:32:38;13.07;;;10.65;;
17251;SDS011;8742;51.716;8.790;2023-08-20T09:35:05;15.18;;;11.00;;
17251;SDS011;8742;51.716;8.790;2023-08-20T09:37:34;10.60;;;8.93;;
17251;SDS011;8742;51.716;8.790;2023-08-20T09:40:13;14.90;;;10.25;;
17251;SDS011;8742;51.716;8.790;2023-08-20T09:42:40;12.57;;;9.80;;
17251;SDS011;8742;51.716;8.790;2023-08-20T09:45:09;17.80;;;10.32;;
17251;SDS011;8742;51.716;8.790;2023-08-20T09:47:37;12.48;;;9.48;;
17251;SDS011;8742;51.716;8.790;2023-08-20T09:50:17;13.85;;;9.35;;
17251;SDS011;8742;51.716;8.790;2023-08-20T09:52:48;16.10;;;9.85;;
17251;SDS011;8742;51.716;8.790;2023-08-20T09:55:29;12.68;;;9.38;;
17251;SDS011;8742;51.716;8.790;2023-08-20T09:58:23;11.75;;;8.07;;
17251;SDS011;8742;51.716;8.790;2023-08-20T10:00:52;10.45;;;8.60;;
17251;SDS011;8742;51.716;8.790;2023-08-20T10:03:24;10.65;;;8.88;;
17251;SDS011;8742;51.716;8.790;2023-08-20T10:05:51;9.93;;;8.60;;
17251;SDS011;8742;51.716;8.790;2023-08-20T10:08:22;10.43;;;8.00;;
17251;SDS011;8742;51.716;8.790;2023-08-20T10:10:49;13.35;;;8.65;;
17251;SDS011;8742;51.716;8.790;2023-08-20T10:13:16;12.82;;;7.78;;
17251;SDS011;8742;51.716;8.790;2023-08-20T10:15:44;12.13;;;9.18;;
17251;SDS011;8742;51.716;8.790;2023-08-20T10:18:11;10.13;;;8.30;;
17251;SDS011;8742;51.716;8.790;2023-08-20T10:20:38;13.95;;;8.95;;
17251;SDS011;8742;51.716;8.790;2023-08-20T10:23:06;9.57;;;7.82;;
17251;SDS011;8742;51.716;8.790;2023-08-20T10:25:39;12.77;;;8.40;;
17251;SDS011;8742;51.716;8.790;2023-08-20T10:28:11;11.13;;;8.18;;
17251;SDS011;8742;51.716;8.790;2023-08-20T10:33:34;14.13;;;7.82;;
17251;SDS011;8742;51.716;8.790;2023-08-20T10:36:08;10.43;;;8.18;;
17251;SDS011;8742;51.716;8.790;2023-08-20T10:38:37;10.05;;;7.85;;
17251;SDS011;8742;51.716;8.790;2023-08-20T10:41:07;9.20;;;7.45;;
17251;SDS011;8742;51.716;8.790;2023-08-20T10:43:35;9.75;;;8.45;;
17251;SDS011;8742;51.716;8.790;2023-08-20T10:46:04;10.07;;;7.90;;
17251;SDS011;8742;51.716;8.790;2023-08-20T10:48:31;9.55;;;7.72;;
17251;SDS011;8742;51.716;8.790;2023-08-20T10:51:05;8.80;;;7.15;;
17251;SDS011;8742;51.716;8.790;2023-08-20T10:53:33;8.73;;;7.38;;
17251;SDS011;8742;51.716;8.790;2023-08-20T10:56:08;9.23;;;7.03;;
17251;SDS011;8742;51.716;8.790;2023-08-20T10:58:38;11.68;;;7.22;;
17251;SDS011;8742;51.716;8.790;2023-08-20T11:01:16;8.00;;;7.13;;
17251;SDS011;8742;51.716;8.790;2023-08-20T11:03:45;9.10;;;7.50;;
17251;SDS011;8742;51.716;8.790;2023-08-20T11:06:13;12.48;;;7.28;;
17251;SDS011;8742;51.716;8.790;2023-08-20T11:08:41;9.20;;;7.53;;
17251;SDS011;8742;51.716;8.790;2023-08-20T11:11:09;12.10;;;8.35;;
17251;SDS011;8742;51.716;8.790;2023-08-20T11:13:38;7.85;;;7.03;;
17251;SDS011;8742;51.716;8.790;2023-08-20T11:16:05;8.82;;;6.90;;
17251;SDS011;8742;51.716;8.790;2023-08-20T11:18:33;10.38;;;7.13;;
17251;SDS011;8742;51.716;8.790;2023-08-20T11:21:00;8.93;;;7.47;;
17251;SDS011;8742;51.716;8.790;2023-08-20T11:23:28;7.95;;;6.95;;
17251;SDS011;8742;51.716;8.790;2023-08-20T11:25:55;8.70;;;6.95;;
17251;SDS011;8742;51.716;8.790;2023-08-20T11:28:24;9.65;;;7.07;;
17251;SDS011;8742;51.716;8.790;2023-08-20T11:30:51;9.20;;;6.88;;
17251;SDS011;8742;51.716;8.790;2023-08-20T11:33:19;9.10;;;6.80;;
17251;SDS011;8742;51.716;8.790;2023-08-20T11:35:47;8.52;;;6.45;;
17251;SDS011;8742;51.716;8.790;2023-08-20T11:38:14;12.50;;;6.80;;
17251;SDS011;8742;51.716;8.790;2023-08-20T11:40:41;12.60;;;6.88;;
17251;SDS011;8742;51.716;8.790;2023-08-20T11:43:08;13.10;;;7.38;;
17251;SDS011;8742;51.716;8.790;2023-08-20T11:45:45;8.75;;;6.95;;
17251;SDS011;8742;51.716;8.790;2023-08-20T11:48:13;8.02;;;6.80;;
17251;SDS011;8742;51.716;8.790;2023-08-20T11:50:40;8.82;;;6.78;;
17251;SDS011;8742;51.716;8.790;2023-08-20T11:53:07;8.85;;;6.50;;
17251;SDS011;8742;51.716;8.790;2023-08-20T11:55:35;7.75;;;6.28;;
17251;SDS011;8742;51.716;8.790;2023-08-20T11:58:03;8.82;;;6.30;;
17251;SDS011;8742;51.716;8.790;2023-08-20T12:00:30;8.13;;;6.18;;
17251;SDS011;8742;51.716;8.790;2023-08-20T12:02:59;6.78;;;6.00;;
17251;SDS011;8742;51.716;8.790;2023-08-20T12:05:29;7.30;;;5.90;;
17251;SDS011;8742;51.716;8.790;2023-08-20T12:07:56;8.93;;;6.70;;
17251;SDS011;8742;51.716;8.790;2023-08-20T12:10:24;37.78;;;6.93;;
17251;SDS011;8742;51.716;8.790;2023-08-20T12:12:52;38.92;;;7.88;;
17251;SDS011;8742;51.716;8.790;2023-08-20T12:15:20;13.55;;;6.25;;
17251;SDS011;8742;51.716;8.790;2023-08-20T12:17:56;8.00;;;5.95;;
17251;SDS011;8742;51.716;8.790;2023-08-20T12:20:29;7.32;;;5.80;;
17251;SDS011;8742;51.716;8.790;2023-08-20T12:22:58;7.53;;;5.78;;
17251;SDS011;8742;51.716;8.790;2023-08-20T12:25:26;6.97;;;5.93;;
17251;SDS011;8742;51.716;8.790;2023-08-20T12:27:56;7.90;;;5.80;;
17251;SDS011;8742;51.716;8.790;2023-08-20T12:30:22;10.15;;;5.85;;
17251;SDS011;8742;51.716;8.790;2023-08-20T12:32:49;7.32;;;5.97;;
17251;SDS011;8742;51.716;8.790;2023-08-20T12:35:17;8.80;;;5.72;;
17251;SDS011;8742;51.716;8.790;2023-08-20T12:37:44;11.07;;;6.00;;
17251;SDS011;8742;51.716;8.790;2023-08-20T12:40:11;13.20;;;6.00;;
17251;SDS011;8742;51.716;8.790;2023-08-20T12:42:38;6.53;;;5.65;;
17251;SDS011;8742;51.716;8.790;2023-08-20T12:45:05;6.82;;;5.55;;
17251;SDS011;8742;51.716;8.790;2023-08-20T12:47:33;6.13;;;5.43;;
17251;SDS011;8742;51.716;8.790;2023-08-20T12:50:00;6.00;;;5.40;;
17251;SDS011;8742;51.716;8.790;2023-08-20T12:52:29;6.93;;;5.70;;
17251;SDS011;8742;51.716;8.790;2023-08-20T12:54:56;7.10;;;5.50;;
17251;SDS011;8742;51.716;8.790;2023-08-20T12:57:23;8.35;;;5.40;;
17251;SDS011;8742;51.716;8.790;2023-08-20T12:59:50;5.97;;;5.15;;
17251;SDS011;8742;51.716;8.790;2023-08-20T13:02:17;6.78;;;4.88;;
17251;SDS011;8742;51.716;8.790;2023-08-20T13:04:45;6.97;;;4.85;;
17251;SDS011;8742;51.716;8.790;2023-08-20T13:07:12;4.85;;;4.38;;
17251;SDS011;8742;51.716;8.790;2023-08-20T13:09:41;8.98;;;5.18;;
17251;SDS011;8742;51.716;8.790;2023-08-20T13:12:08;7.43;;;5.45;;
17251;SDS011;8742;51.716;8.790;2023-08-20T13:14:37;7.25;;;5.43;;
17251;SDS011;8742;51.716;8.790;2023-08-20T13:17:05;9.13;;;6.57;;
17251;SDS011;8742;51.716;8.790;2023-08-20T13:19:33;11.73;;;5.72;;
17251;SDS011;8742;51.716;8.790;2023-08-20T13:22:00;13.60;;;5.78;;
17251;SDS011;8742;51.716;8.790;2023-08-20T13:24:27;7.28;;;5.70;;
17251;SDS011;8742;51.716;8.790;2023-08-20T13:26:55;7.40;;;5.70;;
17251;SDS011;8742;51.716;8.790;2023-08-20T13:29:21;8.63;;;5.88;;
17251;SDS011;8742;51.716;8.790;2023-08-20T13:31:48;6.05;;;5.10;;
17251;SDS011;8742;51.716;8.790;2023-08-20T13:34:15;9.38;;;4.88;;
17251;SDS011;8742;51.716;8.790;2023-08-20T13:36:42;11.55;;;5.60;;
17251;SDS011;8742;51.716;8.790;2023-08-20T13:39:09;7.15;;;5.25;;
17251;SDS011;8742;51.716;8.790;2023-08-20T13:41:38;6.15;;;5.07;;
17251;SDS011;8742;51.716;8.790;2023-08-20T13:44:06;7.82;;;5.50;;
17251;SDS011;8742;51.716;8.790;2023-08-20T13:46:33;6.50;;;5.38;;
17251;SDS011;8742;51.716;8.790;2023-08-20T13:49:01;8.85;;;4.97;;
17251;SDS011;8742;51.716;8.790;2023-08-20T13:51:28;7.15;;;5.18;;
17251;SDS011;8742;51.716;8.790;2023-08-20T13:53:55;7.05;;;4.88;;
17251;SDS011;8742;51.716;8.790;2023-08-20T13:56:22;8.20;;;4.95;;
17251;SDS011;8742;51.716;8.790;2023-08-20T13:58:49;6.00;;;4.28;;
17251;SDS011;8742;51.716;8.790;2023-08-20T14:01:17;5.10;;;4.60;;
17251;SDS011;8742;51.716;8.790;2023-08-20T14:03:44;8.32;;;4.75;;
17251;SDS011;8742;51.716;8.790;2023-08-20T14:06:11;4.85;;;4.40;;
17251;SDS011;8742;51.716;8.790;2023-08-20T14:08:38;10.02;;;4.88;;
17251;SDS011;8742;51.716;8.790;2023-08-20T14:11:05;4.38;;;3.90;;
17251;SDS011;8742;51.716;8.790;2023-08-20T14:13:32;7.00;;;4.50;;
17251;SDS011;8742;51.716;8.790;2023-08-20T14:15:59;4.53;;;4.10;;
17251;SDS011;8742;51.716;8.790;2023-08-20T14:18:27;5.50;;;4.45;;
17251;SDS011;8742;51.716;8.790;2023-08-20T14:20:54;14.90;;;5.20;;
17251;SDS011;8742;51.716;8.790;2023-08-20T14:23:21;6.18;;;5.00;;
17251;SDS011;8742;51.716;8.790;2023-08-20T14:25:48;6.32;;;4.40;;
17251;SDS011;8742;51.716;8.790;2023-08-20T14:28:15;11.23;;;4.95;;
17251;SDS011;8742;51.716;8.790;2023-08-20T14:30:42;33.65;;;6.15;;
17251;SDS011;8742;51.716;8.790;2023-08-20T14:33:08;15.57;;;5.40;;
17251;SDS011;8742;51.716;8.790;2023-08-20T14:35:37;5.57;;;4.07;;
17251;SDS011;8742;51.716;8.790;2023-08-20T14:38:03;4.82;;;4.35;;
17251;SDS011;8742;51.716;8.790;2023-08-20T14:40:30;5.60;;;4.80;;
17251;SDS011;8742;51.716;8.790;2023-08-20T14:42:59;5.13;;;4.65;;
17251;SDS011;8742;51.716;8.790;2023-08-20T14:45:26;5.28;;;4.60;;
17251;SDS011;8742;51.716;8.790;2023-08-20T14:47:52;6.22;;;5.20;;
17251;SDS011;8742;51.716;8.790;2023-08-20T14:50:19;6.00;;;5.38;;
17251;SDS011;8742;51.716;8.790;2023-08-20T14:52:47;10.45;;;5.68;;